createdAt,value
2022-10-23T00:02:16.663Z,17.10
2022-10-23T00:04:44.655Z,17.02
2022-10-23T00:07:13.898Z,17.04
2022-10-23T00:09:41.708Z,16.96
2022-10-23T00:12:09.553Z,16.86
2022-10-23T00:14:37.604Z,16.74
2022-10-23T00:17:05.423Z,16.55
2022-10-23T00:19:33.298Z,16.72
2022-10-23T00:22:01.090Z,16.64
2022-10-23T00:24:30.252Z,16.75
2022-10-23T00:26:58.142Z,16.53
2022-10-23T00:29:28.075Z,16.52
2022-10-23T00:31:55.929Z,16.54
2022-10-23T00:34:23.748Z,16.58
2022-10-23T00:36:51.577Z,16.65
2022-10-23T00:39:19.403Z,16.74
2022-10-23T00:41:48.587Z,16.79
2022-10-23T00:44:49.543Z,16.75
2022-10-23T00:47:18.354Z,16.78
2022-10-23T00:49:46.205Z,16.75
2022-10-23T00:52:15.162Z,16.90
2022-10-23T00:54:45.388Z,16.85
2022-10-23T00:57:16.717Z,16.81
2022-10-23T00:59:44.646Z,16.98
2022-10-23T01:02:12.695Z,16.99
2022-10-23T01:04:40.669Z,17.00
2022-10-23T01:07:15.608Z,17.19
2022-10-23T01:09:48.204Z,17.11
2022-10-23T01:12:25.291Z,17.13
2022-10-23T01:15:02.167Z,17.05
2022-10-23T01:17:39.696Z,16.92
2022-10-23T01:20:30.212Z,16.94
2022-10-23T01:23:18.386Z,16.85
2022-10-23T01:26:03.499Z,16.86
2022-10-23T01:28:39.856Z,16.85
2022-10-23T01:31:15.343Z,16.82
2022-10-23T01:33:48.493Z,16.82
2022-10-23T01:36:28.675Z,16.70
2022-10-23T01:41:43.400Z,16.80
2022-10-23T01:44:17.469Z,16.81
2022-10-23T01:46:46.762Z,16.80
2022-10-23T01:49:16.015Z,16.80
2022-10-23T01:51:48.546Z,16.85
2022-10-23T01:54:19.358Z,16.83
2022-10-23T01:56:51.269Z,16.80
2022-10-23T01:59:29.641Z,16.67
2022-10-23T02:02:00.526Z,16.73
2022-10-23T02:04:34.112Z,16.73
2022-10-23T02:07:02.414Z,16.66
2022-10-23T02:09:30.300Z,16.71
2022-10-23T02:12:03.601Z,16.73
2022-10-23T02:14:41.893Z,16.77
2022-10-23T02:17:16.528Z,16.87
2022-10-23T02:19:50.458Z,16.79
2022-10-23T02:22:24.753Z,16.83
2022-10-23T02:24:57.221Z,16.92
2022-10-23T02:27:31.463Z,16.92
2022-10-23T02:30:06.230Z,16.89
2022-10-23T02:32:37.072Z,16.90
2022-10-23T02:35:05.599Z,16.87
2022-10-23T02:37:34.062Z,16.82
2022-10-23T02:40:04.984Z,16.79
2022-10-23T02:42:48.250Z,16.69
2022-10-23T02:45:25.205Z,16.65
2022-10-23T02:47:59.372Z,16.67
2022-10-23T02:50:34.116Z,16.59
2022-10-23T02:53:11.150Z,16.56
2022-10-23T02:55:49.044Z,16.49
2022-10-23T02:58:25.262Z,16.46
2022-10-23T03:01:00.969Z,16.39
2022-10-23T03:03:33.664Z,16.39
2022-10-23T03:06:01.978Z,16.34
2022-10-23T03:08:29.836Z,16.29
2022-10-23T03:10:57.829Z,16.26
2022-10-23T03:13:28.389Z,16.30
2022-10-23T03:15:57.592Z,16.23
2022-10-23T03:18:27.919Z,16.25
2022-10-23T03:20:59.727Z,16.21
2022-10-23T03:23:27.627Z,16.21
2022-10-23T03:25:56.461Z,16.14
2022-10-23T03:28:36.204Z,16.09
2022-10-23T03:31:05.713Z,16.07
2022-10-23T03:33:34.348Z,16.02
2022-10-23T03:36:11.391Z,16.08
2022-10-23T03:38:39.351Z,16.04
2022-10-23T03:41:07.452Z,16.01
2022-10-23T03:43:35.254Z,16.04
2022-10-23T03:46:09.130Z,16.05
2022-10-23T03:48:38.151Z,16.01
2022-10-23T03:51:06.890Z,15.96
2022-10-23T03:53:34.854Z,15.89
2022-10-23T03:56:04.816Z,15.86
2022-10-23T03:58:34.754Z,15.80
2022-10-23T04:01:02.752Z,15.85
2022-10-23T04:03:31.964Z,15.86
2022-10-23T04:05:59.808Z,15.81
2022-10-23T04:08:27.653Z,15.81
2022-10-23T04:10:56.336Z,15.81
2022-10-23T04:13:46.431Z,15.73
2022-10-23T04:16:14.414Z,15.76
2022-10-23T04:18:44.045Z,15.65
2022-10-23T04:21:12.306Z,15.69
2022-10-23T04:23:40.946Z,15.74
2022-10-23T04:26:17.886Z,15.57
2022-10-23T04:28:45.894Z,15.63
2022-10-23T04:31:14.003Z,15.65
2022-10-23T04:33:45.326Z,15.64
2022-10-23T04:36:27.155Z,15.58
2022-10-23T04:38:55.021Z,15.55
2022-10-23T04:41:22.886Z,15.44
2022-10-23T04:43:50.787Z,15.32
2022-10-23T04:46:18.976Z,15.27
2022-10-23T04:48:51.059Z,15.29
2022-10-23T04:51:29.546Z,15.30
2022-10-23T04:54:13.525Z,15.28
2022-10-23T04:56:48.468Z,15.30
2022-10-23T04:59:22.045Z,15.30
2022-10-23T05:01:50.288Z,15.34
2022-10-23T05:04:20.606Z,15.38
2022-10-23T05:07:07.171Z,15.44
2022-10-23T05:09:50.721Z,15.21
2022-10-23T05:12:33.014Z,15.14
2022-10-23T05:15:01.270Z,15.13
2022-10-23T05:17:34.093Z,15.13
2022-10-23T05:20:08.704Z,15.20
2022-10-23T05:22:39.970Z,15.04
2022-10-23T05:25:11.501Z,15.02
2022-10-23T05:27:41.869Z,15.05
2022-10-23T05:30:13.808Z,15.18
2022-10-23T05:32:42.997Z,15.11
2022-10-23T05:35:17.185Z,15.00
2022-10-23T05:37:50.904Z,14.98
2022-10-23T05:40:22.319Z,15.11
2022-10-23T05:42:54.718Z,14.97
2022-10-23T05:45:32.529Z,15.04
2022-10-23T05:48:33.413Z,15.14
2022-10-23T05:51:23.262Z,15.08
2022-10-23T05:54:01.695Z,15.03
2022-10-23T05:56:34.362Z,15.15
2022-10-23T05:59:23.271Z,15.17
2022-10-23T06:02:20.745Z,15.13
2022-10-23T06:04:56.971Z,15.10
2022-10-23T06:07:35.005Z,15.16
2022-10-23T06:10:06.967Z,15.18
2022-10-23T06:12:39.578Z,15.24
2022-10-23T06:15:08.730Z,15.25
2022-10-23T06:18:02.983Z,15.25
2022-10-23T06:20:36.631Z,15.27
2022-10-23T06:23:12.248Z,15.32
2022-10-23T06:26:03.466Z,15.27
2022-10-23T06:28:49.276Z,15.28
2022-10-23T06:31:19.096Z,15.26
2022-10-23T06:33:47.140Z,15.28
2022-10-23T06:36:15.556Z,15.33
2022-10-23T06:38:45.870Z,15.33
2022-10-23T06:41:16.453Z,15.29
2022-10-23T06:43:49.114Z,15.22
2022-10-23T06:46:49.304Z,15.36
2022-10-23T06:49:43.578Z,15.30
2022-10-23T06:52:23.154Z,15.29
2022-10-23T06:55:00.749Z,15.45
2022-10-23T06:57:35.249Z,15.45
2022-10-23T07:00:03.216Z,15.33
2022-10-23T07:02:35.890Z,15.28
2022-10-23T07:05:06.016Z,15.25
2022-10-23T07:07:35.583Z,15.55
2022-10-23T07:10:07.306Z,15.44
2022-10-23T07:12:42.288Z,15.58
2022-10-23T07:15:31.059Z,15.58
2022-10-23T07:17:59.542Z,15.60
2022-10-23T07:20:34.535Z,15.65
2022-10-23T07:23:02.416Z,15.59
2022-10-23T07:25:38.083Z,15.64
2022-10-23T07:28:07.289Z,15.58
2022-10-23T07:30:35.183Z,15.80
2022-10-23T07:33:04.299Z,15.62
2022-10-23T07:35:58.005Z,15.77
2022-10-23T07:38:29.031Z,15.78
2022-10-23T07:41:00.148Z,15.76
2022-10-23T07:43:28.650Z,15.87
2022-10-23T07:45:56.830Z,16.10
2022-10-23T07:48:31.538Z,16.09
2022-10-23T07:51:01.840Z,16.17
2022-10-23T07:53:30.917Z,16.31
2022-10-23T07:56:14.140Z,16.48
2022-10-23T07:59:02.188Z,16.48
2022-10-23T08:01:33.554Z,16.36
2022-10-23T08:04:02.031Z,16.59
2022-10-23T08:06:31.066Z,16.70
2022-10-23T08:09:02.323Z,16.69
2022-10-23T08:11:36.242Z,16.73
2022-10-23T08:14:08.204Z,16.78
2022-10-23T08:16:39.328Z,16.76
2022-10-23T08:19:08.790Z,16.74
2022-10-23T08:21:40.123Z,16.70
2022-10-23T08:24:13.699Z,16.85
2022-10-23T08:26:47.521Z,17.08
2022-10-23T08:29:15.395Z,17.07
2022-10-23T08:31:43.733Z,17.17
2022-10-23T08:34:26.055Z,17.25
2022-10-23T08:36:55.190Z,17.26
2022-10-23T08:39:24.839Z,17.29
2022-10-23T08:42:20.401Z,17.22
2022-10-23T08:44:59.082Z,17.53
2022-10-23T08:47:34.848Z,17.72
2022-10-23T08:50:26.976Z,17.80
2022-10-23T08:53:00.249Z,17.49
2022-10-23T08:55:34.211Z,17.55
2022-10-23T08:58:08.563Z,17.63
2022-10-23T09:00:36.422Z,17.89
2022-10-23T09:03:06.426Z,17.87
2022-10-23T09:05:40.775Z,17.90
2022-10-23T09:08:29.906Z,17.94
2022-10-23T09:11:05.452Z,17.96
2022-10-23T09:14:12.524Z,18.17
2022-10-23T09:16:56.323Z,18.48
2022-10-23T09:19:27.249Z,18.62
2022-10-23T09:21:56.505Z,18.52
2022-10-23T09:24:26.156Z,18.77
2022-10-23T09:26:55.236Z,19.16
2022-10-23T09:29:26.792Z,19.23
2022-10-23T09:31:56.794Z,19.54
2022-10-23T09:34:26.983Z,19.66
2022-10-23T09:36:56.839Z,19.90
2022-10-23T09:39:28.480Z,19.99
2022-10-23T09:41:57.097Z,19.97
2022-10-23T09:44:27.940Z,19.97
2022-10-23T09:47:01.223Z,20.09
2022-10-23T09:49:31.305Z,20.30
2022-10-23T09:52:04.406Z,20.80
2022-10-23T09:54:34.392Z,20.97
2022-10-23T09:57:13.653Z,20.99
2022-10-23T09:59:43.565Z,20.80
2022-10-23T10:02:23.957Z,20.66
2022-10-23T10:05:24.387Z,21.15
2022-10-23T10:07:59.306Z,21.07
2022-10-23T10:10:35.747Z,21.38
2022-10-23T10:13:15.131Z,21.36
2022-10-23T10:15:51.611Z,21.54
2022-10-23T10:18:27.553Z,21.78
2022-10-23T10:21:09.347Z,21.66
2022-10-23T10:23:47.110Z,22.03
2022-10-23T10:26:26.902Z,22.12
2022-10-23T10:29:06.257Z,22.19
2022-10-23T10:31:50.713Z,22.02
2022-10-23T10:34:29.947Z,21.68
2022-10-23T10:37:06.750Z,21.78
2022-10-23T10:39:48.732Z,21.95
2022-10-23T10:42:33.549Z,21.62
2022-10-23T10:45:18.404Z,21.91
2022-10-23T10:47:57.249Z,22.13
2022-10-23T10:50:37.703Z,22.54
2022-10-23T10:53:24.474Z,22.65
2022-10-23T10:55:55.500Z,22.85
2022-10-23T10:58:31.334Z,22.62
2022-10-23T11:01:02.227Z,22.99
2022-10-23T11:03:40.609Z,22.23
2022-10-23T11:06:16.164Z,22.43
2022-10-23T11:08:57.562Z,22.29
2022-10-23T11:11:34.051Z,22.69
2022-10-23T11:14:02.995Z,22.61
2022-10-23T11:16:35.953Z,22.76
2022-10-23T11:19:14.053Z,22.56
2022-10-23T11:21:45.319Z,22.76
2022-10-23T11:24:55.797Z,22.80
2022-10-23T11:31:24.654Z,23.02
2022-10-23T11:34:34.817Z,23.20
2022-10-23T11:37:04.805Z,22.69
2022-10-23T11:39:34.650Z,23.49
2022-10-23T11:42:15.954Z,23.62
2022-10-23T11:44:45.299Z,23.79
2022-10-23T11:47:39.265Z,23.62
2022-10-23T11:50:28.368Z,23.76
2022-10-23T11:53:14.546Z,23.20
2022-10-23T11:55:59.803Z,23.03
2022-10-23T11:58:32.512Z,22.99
2022-10-23T12:01:04.808Z,23.01
2022-10-23T12:03:42.712Z,22.92
2022-10-23T12:06:24.396Z,23.16
2022-10-23T12:08:56.083Z,23.09
2022-10-23T12:11:27.819Z,23.39
2022-10-23T12:13:56.206Z,23.00
2022-10-23T12:16:34.846Z,23.19
2022-10-23T12:19:20.600Z,23.16
2022-10-23T12:21:52.769Z,22.97
2022-10-23T12:24:39.643Z,22.90
2022-10-23T12:27:18.078Z,22.82
2022-10-23T12:30:03.676Z,22.53
2022-10-23T12:33:14.568Z,22.54
2022-10-23T12:36:22.997Z,22.59
2022-10-23T12:38:52.542Z,22.17
2022-10-23T12:41:26.084Z,22.34
2022-10-23T12:43:58.092Z,22.05
2022-10-23T12:46:35.204Z,22.17
2022-10-23T12:49:15.177Z,21.98
2022-10-23T12:51:43.169Z,22.19
2022-10-23T12:54:17.810Z,22.13
2022-10-23T12:56:46.160Z,22.34
2022-10-23T12:59:17.827Z,22.32
2022-10-23T13:01:50.419Z,22.17
2022-10-23T13:04:28.648Z,22.24
2022-10-23T13:06:58.148Z,22.46
2022-10-23T13:09:31.331Z,22.13
2022-10-23T13:12:22.348Z,21.97
2022-10-23T13:14:59.364Z,22.20
2022-10-23T13:17:36.383Z,22.44
2022-10-23T13:20:24.196Z,22.36
2022-10-23T13:23:00.594Z,21.83
2022-10-23T13:25:32.355Z,21.92
2022-10-23T13:28:14.900Z,22.22
2022-10-23T13:30:46.190Z,21.94
2022-10-23T13:33:24.060Z,22.21
2022-10-23T13:35:58.996Z,22.10
2022-10-23T13:38:31.222Z,22.12
2022-10-23T13:41:02.061Z,22.22
2022-10-23T13:43:31.697Z,22.34
2022-10-23T13:46:00.256Z,22.24
2022-10-23T13:48:28.924Z,22.31
2022-10-23T13:51:02.880Z,21.68
2022-10-23T13:57:19.281Z,21.53
2022-10-23T13:59:47.094Z,21.41
2022-10-23T14:02:20.726Z,21.33
2022-10-23T14:04:48.932Z,21.55
2022-10-23T14:07:17.140Z,21.40
2022-10-23T14:09:45.097Z,21.48
2022-10-23T14:12:13.580Z,21.57
2022-10-23T14:14:42.828Z,21.76
2022-10-23T14:17:10.677Z,21.71
2022-10-23T14:19:38.513Z,21.68
2022-10-23T14:22:06.452Z,21.82
2022-10-23T14:24:34.318Z,21.41
2022-10-23T14:27:02.158Z,21.15
2022-10-23T14:29:30.435Z,21.22
2022-10-23T14:31:59.575Z,21.44
2022-10-23T14:34:27.375Z,21.24
2022-10-23T14:37:08.077Z,21.17
2022-10-23T14:39:37.194Z,20.93
2022-10-23T14:42:05.404Z,21.06
2022-10-23T14:44:33.233Z,20.98
2022-10-23T14:47:03.106Z,21.26
2022-10-23T14:49:31.466Z,21.11
2022-10-23T14:51:59.361Z,20.83
2022-10-23T14:54:29.270Z,21.26
2022-10-23T14:56:57.112Z,21.31
2022-10-23T14:59:24.906Z,21.10
2022-10-23T15:04:26.780Z,20.65
2022-10-23T15:06:55.025Z,21.02
2022-10-23T15:09:22.839Z,20.70
2022-10-23T15:11:50.849Z,20.89
2022-10-23T15:14:18.739Z,21.08
2022-10-23T15:16:48.180Z,20.76
2022-10-23T15:19:18.501Z,20.85
2022-10-23T15:21:49.108Z,20.83
2022-10-23T15:24:16.994Z,20.61
2022-10-23T15:26:44.832Z,20.62
2022-10-23T15:29:14.543Z,20.63
2022-10-23T15:31:45.772Z,20.75
2022-10-23T15:34:15.846Z,20.64
2022-10-23T15:36:44.843Z,20.55
2022-10-23T15:39:16.298Z,20.60
2022-10-23T15:41:44.462Z,20.51
2022-10-23T15:44:15.488Z,20.24
2022-10-23T15:46:43.290Z,20.41
2022-10-23T15:49:11.430Z,20.30
2022-10-23T15:51:40.634Z,20.12
2022-10-23T15:54:09.882Z,20.13
2022-10-23T15:56:39.178Z,20.18
2022-10-23T15:59:07.049Z,20.32
2022-10-23T16:01:34.972Z,19.90
2022-10-23T16:04:03.190Z,20.26
2022-10-23T16:06:31.100Z,20.35
2022-10-23T16:08:59.088Z,20.20
2022-10-23T16:11:29.124Z,20.22
2022-10-23T16:14:00.017Z,19.96
2022-10-23T16:16:29.218Z,20.10
2022-10-23T16:18:59.166Z,20.27
2022-10-23T16:21:29.283Z,20.23
2022-10-23T16:23:59.529Z,20.15
2022-10-23T16:26:28.444Z,20.16
2022-10-23T16:28:59.150Z,20.03
2022-10-23T16:31:27.527Z,19.78
2022-10-23T16:33:55.747Z,20.04
2022-10-23T16:36:23.553Z,20.12
2022-10-23T16:39:20.153Z,20.15
2022-10-23T16:42:07.059Z,19.87
2022-10-23T16:44:53.294Z,19.64
2022-10-23T16:47:21.279Z,19.83
2022-10-23T16:49:49.242Z,19.81
2022-10-23T16:52:17.062Z,19.98
2022-10-23T16:54:45.221Z,19.64
2022-10-23T16:57:13.051Z,19.64
2022-10-23T16:59:40.873Z,19.90
2022-10-23T17:02:10.645Z,19.83
2022-10-23T17:04:39.648Z,19.90
2022-10-23T17:07:08.073Z,19.87
2022-10-23T17:09:36.000Z,19.59
2022-10-23T17:12:04.269Z,19.61
2022-10-23T17:14:32.430Z,19.42
2022-10-23T17:17:02.289Z,19.79
2022-10-23T17:19:44.544Z,19.82
2022-10-23T17:22:14.007Z,19.60
2022-10-23T17:24:45.101Z,19.66
2022-10-23T17:27:15.590Z,19.81
2022-10-23T17:29:44.149Z,19.50
2022-10-23T17:32:12.114Z,19.38
2022-10-23T17:34:41.349Z,19.57
2022-10-23T17:37:10.168Z,19.62
2022-10-23T17:39:38.188Z,19.60
2022-10-23T17:42:06.045Z,19.48
2022-10-23T17:44:33.934Z,19.40
2022-10-23T17:47:01.998Z,19.11
2022-10-23T17:49:29.867Z,19.28
2022-10-23T17:51:59.312Z,19.43
2022-10-23T17:54:28.396Z,19.41
2022-10-23T17:56:56.501Z,19.62
2022-10-23T17:59:24.555Z,19.51
2022-10-23T18:01:52.610Z,19.35
2022-10-23T18:04:22.471Z,19.27
2022-10-23T18:06:52.459Z,19.47
2022-10-23T18:09:23.465Z,19.48
2022-10-23T18:11:52.726Z,19.27
2022-10-23T18:14:28.515Z,19.17
2022-10-23T18:16:57.711Z,19.38
2022-10-23T18:19:25.589Z,19.33
2022-10-23T18:21:53.849Z,19.26
2022-10-23T18:24:23.815Z,19.28
2022-10-23T18:26:51.915Z,19.22
2022-10-23T18:29:20.774Z,19.29
2022-10-23T18:31:49.285Z,19.08
2022-10-23T18:34:19.252Z,19.07
2022-10-23T18:36:48.104Z,19.11
2022-10-23T18:39:18.408Z,18.96
2022-10-23T18:41:47.657Z,19.02
2022-10-23T18:44:17.782Z,18.92
2022-10-23T18:46:47.779Z,18.94
2022-10-23T18:49:17.104Z,18.87
2022-10-23T18:51:44.999Z,18.67
2022-10-23T18:54:15.958Z,18.87
2022-10-23T18:56:44.408Z,18.88
2022-10-23T18:59:16.245Z,18.84
2022-10-23T19:01:45.579Z,18.88
2022-10-23T19:04:16.159Z,18.76
2022-10-23T19:06:46.136Z,18.77
2022-10-23T19:09:15.224Z,18.83
2022-10-23T19:11:43.962Z,18.95
2022-10-23T19:14:13.537Z,18.77
2022-10-23T19:16:44.665Z,18.85
2022-10-23T19:19:16.500Z,18.57
2022-10-23T19:21:45.574Z,18.62
2022-10-23T19:24:17.068Z,18.83
2022-10-23T19:26:45.569Z,18.59
2022-10-23T19:29:18.163Z,18.66
2022-10-23T19:31:49.107Z,18.49
2022-10-23T19:34:19.982Z,18.70
2022-10-23T19:36:48.565Z,18.65
2022-10-23T19:39:16.756Z,18.57
2022-10-23T19:41:44.646Z,18.18
2022-10-23T19:44:14.062Z,18.22
2022-10-23T19:46:42.060Z,18.52
2022-10-23T19:49:10.592Z,18.52
2022-10-23T19:51:39.327Z,18.49
2022-10-23T19:54:07.896Z,18.45
2022-10-23T19:56:37.070Z,18.54
2022-10-23T19:59:05.616Z,18.40
2022-10-23T20:01:35.395Z,18.31
2022-10-23T20:04:03.300Z,18.36
2022-10-23T20:06:34.516Z,18.28
2022-10-23T20:09:05.323Z,18.30
2022-10-23T20:11:33.828Z,18.18
2022-10-23T20:14:02.010Z,18.22
2022-10-23T20:16:32.019Z,18.12
2022-10-23T20:19:03.319Z,18.30
2022-10-23T20:21:31.766Z,18.31
2022-10-23T20:24:00.226Z,18.17
2022-10-23T20:26:28.317Z,17.94
2022-10-23T20:28:57.386Z,18.35
2022-10-23T20:31:27.388Z,18.29
2022-10-23T20:33:55.746Z,18.16
2022-10-23T20:36:28.137Z,18.01
2022-10-23T20:38:56.950Z,18.03
2022-10-23T20:41:27.124Z,18.18
2022-10-23T20:43:56.559Z,18.15
2022-10-23T20:46:24.747Z,18.09
2022-10-23T20:48:53.024Z,18.22
2022-10-23T20:51:23.091Z,18.00
2022-10-23T20:53:53.228Z,18.11
2022-10-23T20:56:24.261Z,17.70
2022-10-23T20:58:52.079Z,17.61
2022-10-23T21:01:20.250Z,17.86
2022-10-23T21:03:51.198Z,18.00
2022-10-23T21:06:20.149Z,17.96
2022-10-23T21:08:48.207Z,17.87
2022-10-23T21:11:18.644Z,17.70
2022-10-23T21:13:46.454Z,17.75
2022-10-23T21:16:16.022Z,17.64
2022-10-23T21:18:46.687Z,17.84
2022-10-23T21:21:17.025Z,17.82
2022-10-23T21:23:45.025Z,17.57
2022-10-23T21:26:13.544Z,17.58
2022-10-23T21:28:55.650Z,17.62
2022-10-23T21:31:33.531Z,17.73
2022-10-23T21:34:01.548Z,17.72
2022-10-23T21:36:31.038Z,17.77
2022-10-23T21:39:01.419Z,17.85
2022-10-23T21:41:31.111Z,17.50
2022-10-23T21:44:02.614Z,17.72
2022-10-23T21:46:31.908Z,17.79
2022-10-23T21:49:00.432Z,17.68
2022-10-23T21:51:31.334Z,17.76
2022-10-23T21:53:59.626Z,17.91
2022-10-23T21:56:31.276Z,17.79
2022-10-23T21:59:02.448Z,17.54
2022-10-23T22:01:30.995Z,17.68
2022-10-23T22:03:59.138Z,17.61
2022-10-23T22:06:29.320Z,17.81
2022-10-23T22:08:59.044Z,17.68
2022-10-23T22:11:28.076Z,17.78
2022-10-23T22:13:56.397Z,17.56
2022-10-23T22:16:25.879Z,17.67
2022-10-23T22:18:54.384Z,17.70
2022-10-23T22:21:25.672Z,17.76
2022-10-23T22:23:56.266Z,17.77
2022-10-23T22:26:27.041Z,17.99
2022-10-23T22:28:56.892Z,17.81
2022-10-23T22:31:31.561Z,17.60
2022-10-23T22:34:08.578Z,17.49
2022-10-23T22:36:47.015Z,17.44
2022-10-23T22:39:14.893Z,17.45
2022-10-23T22:41:43.633Z,17.38
2022-10-23T22:44:12.832Z,17.41
2022-10-23T22:46:43.018Z,17.33
2022-10-23T22:49:11.426Z,17.51
2022-10-23T22:51:39.920Z,17.45
2022-10-23T22:54:08.014Z,17.51
2022-10-23T22:56:36.130Z,17.16
2022-10-23T22:59:04.936Z,17.04
2022-10-23T23:01:36.175Z,17.08
2022-10-23T23:04:19.760Z,17.26
2022-10-23T23:06:53.744Z,17.14
2022-10-23T23:09:21.632Z,17.09
2022-10-23T23:11:52.928Z,16.94
2022-10-23T23:14:23.703Z,16.99
2022-10-23T23:16:53.085Z,17.08
2022-10-23T23:19:23.551Z,17.22
2022-10-23T23:21:51.415Z,16.97
2022-10-23T23:24:19.260Z,17.18
2022-10-23T23:26:47.249Z,17.02
2022-10-23T23:29:15.095Z,17.12
2022-10-23T23:31:42.998Z,17.01
2022-10-23T23:34:11.245Z,17.13
2022-10-23T23:36:40.603Z,17.10
2022-10-23T23:39:08.670Z,17.27
2022-10-23T23:41:36.549Z,17.37
2022-10-23T23:44:04.593Z,17.33
2022-10-23T23:46:32.464Z,17.19
2022-10-23T23:49:00.270Z,17.33
2022-10-23T23:51:28.122Z,17.45
2022-10-23T23:53:57.329Z,17.38
2022-10-23T23:56:25.225Z,17.26
2022-10-23T23:58:53.495Z,17.43
